Time;durP1;ratioP1;P1;durP2;ratioP2;P2;SDS_P1;SDS_P2;PMS_P1;PMS_P2;Temp;Humidity;BMP_temperature;BMP_pressure;BME280_temperature;BME280_humidity;BME280_pressure;Samples;Min_cycle;Max_cycle;Signal;HPM_P1;HPM_P2
2021/07/15 00:00:54;;;;;;;1.20;0.85;;;;;;;19.48;81.04;100753.16;5065086;28;20078;-79
2021/07/15 00:03:22;;;;;;;1.33;0.93;;;;;;;19.36;81.18;100755.50;5060066;28;20033;-83
2021/07/15 00:05:48;;;;;;;0.82;0.82;;;;;;;19.13;82.07;100753.19;5068352;28;20116;-82
2021/07/15 00:08:16;;;;;;;0.93;0.93;;;;;;;19.15;82.33;100757.47;5062195;28;20088;-84
2021/07/15 00:10:47;;;;;;;0.90;0.90;;;;;;;19.06;82.83;100758.81;5062167;28;20063;-86
2021/07/15 00:13:16;;;;;;;1.23;1.13;;;;;;;19.04;82.74;100749.22;5041499;28;20063;-85
2021/07/15 00:15:44;;;;;;;3.83;1.10;;;;;;;19.05;83.30;100757.09;5075924;28;20024;-87
2021/07/15 00:18:11;;;;;;;2.50;0.90;;;;;;;19.15;82.83;100761.91;5064317;28;20035;-85
2021/07/15 00:20:42;;;;;;;0.65;0.65;;;;;;;19.29;82.27;100759.41;5057776;28;20387;-85
2021/07/15 00:23:07;;;;;;;0.80;0.73;;;;;;;19.01;82.78;100754.69;5057927;28;20039;-84
2021/07/15 00:25:35;;;;;;;3.08;1.25;;;;;;;19.14;82.60;100752.25;5059167;28;20016;-84
2021/07/15 00:28:01;;;;;;;2.80;1.10;;;;;;;19.13;82.18;100753.19;5092804;28;20052;-84
2021/07/15 00:30:26;;;;;;;1.05;1.05;;;;;;;19.03;83.89;100743.09;5072982;28;20413;-82
2021/07/15 00:32:51;;;;;;;0.70;0.70;;;;;;;19.13;82.57;100738.16;5047370;28;20033;-83
2021/07/15 00:35:17;;;;;;;1.73;1.23;;;;;;;18.97;83.23;100738.09;5041704;28;20119;-84
2021/07/15 00:37:43;;;;;;;0.90;0.60;;;;;;;18.96;83.49;100736.38;5057333;28;20078;-82
2021/07/15 00:40:11;;;;;;;1.13;1.02;;;;;;;18.78;84.38;100726.69;5041492;28;20020;-83
2021/07/15 00:42:37;;;;;;;1.25;1.05;;;;;;;18.81;83.87;100721.25;5057624;28;20342;-83
2021/07/15 00:45:05;;;;;;;1.10;1.00;;;;;;;18.96;83.24;100717.84;5057327;28;20055;-85
2021/07/15 00:47:30;;;;;;;3.20;0.90;;;;;;;18.97;83.27;100711.63;5041415;28;20028;-84
2021/07/15 00:49:57;;;;;;;1.85;0.90;;;;;;;19.08;82.43;100708.41;5040679;28;20031;-85
2021/07/15 00:52:22;;;;;;;1.75;1.13;;;;;;;18.86;83.50;100708.63;5056889;28;20104;-84
2021/07/15 00:54:47;;;;;;;1.75;0.80;;;;;;;18.79;84.26;100713.38;5040940;28;20393;-84
2021/07/15 00:57:13;;;;;;;1.08;0.90;;;;;;;18.92;83.81;100711.00;5074131;28;20028;-84
2021/07/15 00:59:38;;;;;;;1.13;0.85;;;;;;;18.82;84.48;100709.72;5040803;28;20028;-84
2021/07/15 01:02:04;;;;;;;2.05;0.95;;;;;;;18.55;85.07;100718.09;5040296;28;20031;-84
2021/07/15 01:04:30;;;;;;;1.17;1.02;;;;;;;18.58;86.09;100715.28;5058041;28;20021;-85
2021/07/15 01:06:55;;;;;;;1.25;1.00;;;;;;;18.66;84.81;100717.56;5041326;28;20028;-85
2021/07/15 01:09:22;;;;;;;2.70;0.93;;;;;;;18.74;84.30;100716.25;5056863;28;20547;-85
2021/07/15 01:12:12;;;;;;;1.60;0.82;;;;;;;18.62;84.38;100719.50;5039994;28;20032;-87
2021/07/15 01:14:46;;;;;;;2.80;0.68;;;;;;;18.68;83.74;100719.22;5056851;28;20428;-87
2021/07/15 01:17:19;;;;;;;1.05;0.90;;;;;;;18.42;84.90;100729.28;5040569;28;20369;-87
2021/07/15 01:20:09;;;;;;;1.00;1.00;;;;;;;18.61;84.31;100741.63;5040168;28;20036;-87
2021/07/15 01:23:03;;;;;;;0.85;0.85;;;;;;;18.50;84.48;100744.78;5049653;28;20463;-87
2021/07/15 01:26:07;;;;;;;1.25;1.15;;;;;;;18.37;85.36;100733.94;5045674;28;20074;-86
2021/07/15 01:29:00;;;;;;;0.90;0.68;;;;;;;18.40;84.84;100744.34;5052894;28;20043;-86
2021/07/15 01:31:25;;;;;;;0.73;0.60;;;;;;;18.27;84.71;100740.59;5076561;28;20025;-85
2021/07/15 01:33:51;;;;;;;3.53;0.85;;;;;;;18.38;85.19;100735.66;5059769;28;20043;-84
2021/07/15 01:36:19;;;;;;;1.58;0.60;;;;;;;18.48;84.59;100740.50;5075561;28;20024;-85
2021/07/15 01:38:50;;;;;;;6.47;0.98;;;;;;;18.07;85.48;100742.38;5075864;28;20030;-85
2021/07/15 01:41:21;;;;;;;0.60;0.57;;;;;;;18.21;85.35;100748.81;5072068;28;20078;-85
2021/07/15 01:43:51;;;;;;;6.63;0.80;;;;;;;18.36;84.49;100742.78;5072659;28;20016;-85
2021/07/15 01:46:16;;;;;;;1.10;0.90;;;;;;;18.18;84.92;100743.69;5071895;28;20024;-83
2021/07/15 01:48:43;;;;;;;0.93;0.70;;;;;;;17.92;86.67;100736.97;5041800;28;20115;-83
2021/07/15 01:51:09;;;;;;;0.63;0.63;;;;;;;18.03;85.98;100745.25;5035036;28;20071;-84
2021/07/15 01:53:35;;;;;;;2.58;0.75;;;;;;;18.01;85.91;100742.69;5057984;28;20036;-83
2021/07/15 01:56:02;;;;;;;2.67;0.60;;;;;;;18.07;85.24;100747.66;5057600;28;20024;-82
2021/07/15 01:58:29;;;;;;;3.60;0.88;;;;;;;17.93;86.16;100750.13;5041137;28;20027;-83
2021/07/15 02:00:55;;;;;;;1.30;0.65;;;;;;;17.84;86.00;100751.34;5057560;28;20028;-84
2021/07/15 02:03:20;;;;;;;0.50;0.50;;;;;;;17.96;85.95;100760.53;5040519;28;20307;-83
2021/07/15 02:05:46;;;;;;;1.38;0.80;;;;;;;18.04;85.66;100758.41;5040764;28;20024;-84
2021/07/15 02:08:12;;;;;;;0.82;0.77;;;;;;;17.79;86.55;100760.41;5041479;28;20020;-84
2021/07/15 02:10:38;;;;;;;1.67;0.70;;;;;;;17.87;86.79;100763.56;5059210;28;20029;-84
2021/07/15 02:13:07;;;;;;;1.67;0.65;;;;;;;17.86;86.24;100765.34;5063388;28;20024;-84
2021/07/15 02:15:33;;;;;;;1.85;0.70;;;;;;;17.99;85.11;100768.31;5065921;28;20127;-83
2021/07/15 02:17:59;;;;;;;2.03;0.68;;;;;;;18.10;85.09;100772.25;5045770;28;20084;-84
2021/07/15 02:20:25;;;;;;;0.73;0.73;;;;;;;18.18;84.39;100786.81;5046375;28;20016;-84
2021/07/15 02:22:52;;;;;;;1.02;0.70;;;;;;;17.99;85.58;100788.59;5060080;28;20148;-84
2021/07/15 02:25:17;;;;;;;1.17;0.70;;;;;;;18.13;84.91;100795.91;5039660;28;20436;-84
2021/07/15 02:27:45;;;;;;;2.70;0.75;;;;;;;17.86;86.27;100796.19;5039195;28;20108;-84
2021/07/15 02:30:13;;;;;;;0.95;0.68;;;;;;;18.08;84.91;100793.47;5040061;28;20020;-84
2021/07/15 02:32:39;;;;;;;3.45;0.90;;;;;;;17.81;85.61;100796.41;5055388;28;20315;-84
2021/07/15 02:35:09;;;;;;;3.35;0.90;;;;;;;17.76;85.78;100789.63;5039571;28;20318;-86
2021/07/15 02:37:36;;;;;;;1.30;1.20;;;;;;;17.56;87.54;100788.69;5042092;28;20033;-83
2021/07/15 02:40:06;;;;;;;4.85;0.75;;;;;;;17.69;87.17;100784.59;5075868;28;20091;-83
2021/07/15 02:42:32;;;;;;;0.90;0.90;;;;;;;17.70;86.70;100788.13;5040760;28;20021;-83
2021/07/15 02:44:57;;;;;;;1.42;0.90;;;;;;;17.69;87.02;100774.03;5041019;28;20028;-82
2021/07/15 02:47:22;;;;;;;1.10;1.10;;;;;;;17.84;86.42;100782.22;5074075;28;20035;-82
2021/07/15 02:49:48;;;;;;;3.85;1.42;;;;;;;17.70;86.67;100778.41;5055628;28;20020;-83
2021/07/15 02:52:16;;;;;;;1.45;1.10;;;;;;;17.67;87.14;100780.31;5055496;28;20315;-83
2021/07/15 02:54:42;;;;;;;0.93;0.90;;;;;;;17.56;87.85;100793.97;5039270;28;20024;-83
2021/07/15 02:57:31;;;;;;;1.65;0.95;;;;;;;17.71;86.60;100798.59;5039560;28;20295;-83
2021/07/15 03:00:06;;;;;;;1.20;0.98;;;;;;;17.92;85.28;100806.53;5039076;28;20029;-82
2021/07/15 03:02:37;;;;;;;2.58;0.80;;;;;;;18.06;85.10;100811.19;5041372;28;20021;-83
2021/07/15 03:05:07;;;;;;;3.90;1.10;;;;;;;17.99;85.41;100807.09;5042753;28;20024;-83
2021/07/15 03:07:35;;;;;;;1.20;0.90;;;;;;;17.90;85.32;100805.69;5059714;28;20388;-84
2021/07/15 03:10:03;;;;;;;1.27;0.90;;;;;;;17.95;84.50;100813.47;5059448;28;20051;-82
2021/07/15 03:12:32;;;;;;;4.93;1.30;;;;;;;17.93;84.67;100815.31;5042795;28;20552;-83
2021/07/15 03:14:58;;;;;;;0.80;0.70;;;;;;;17.96;85.18;100818.66;5043134;28;20029;-83
2021/07/15 03:17:26;;;;;;;2.65;0.70;;;;;;;17.97;85.40;100815.13;5042961;28;20023;-83
2021/07/15 03:19:52;;;;;;;1.77;0.80;;;;;;;18.01;84.35;100818.44;5042765;28;20039;-84
2021/07/15 03:22:18;;;;;;;1.48;0.80;;;;;;;17.98;84.60;100806.22;5042243;28;20024;-84
2021/07/15 03:24:49;;;;;;;0.80;0.60;;;;;;;17.87;85.78;100803.19;5059357;28;20365;-83
2021/07/15 03:27:16;;;;;;;1.25;0.70;;;;;;;18.03;84.51;100796.31;5042408;28;20020;-83
2021/07/15 03:29:45;;;;;;;1.20;0.77;;;;;;;18.14;84.04;100787.06;5042198;28;20017;-83
2021/07/15 03:32:12;;;;;;;1.77;0.70;;;;;;;18.17;83.74;100785.09;5058753;28;20047;-83
2021/07/15 03:34:37;;;;;;;2.85;0.77;;;;;;;18.26;83.56;100785.63;5042215;28;20021;-83
2021/07/15 03:37:04;;;;;;;0.60;0.60;;;;;;;18.00;83.92;100788.53;5058832;28;20326;-83
2021/07/15 03:39:30;;;;;;;1.08;0.70;;;;;;;18.01;84.49;100795.53;5041940;28;20350;-83
2021/07/15 03:41:56;;;;;;;0.65;0.65;;;;;;;18.13;83.63;100799.38;5058045;28;20025;-84
2021/07/15 03:44:21;;;;;;;1.75;0.85;;;;;;;18.22;83.11;100793.69;5058773;28;20045;-83
2021/07/15 03:46:47;;;;;;;4.93;0.85;;;;;;;18.14;82.90;100795.81;5042266;28;20050;-84
2021/07/15 03:49:17;;;;;;;0.65;0.65;;;;;;;18.08;83.71;100802.25;5058965;28;20020;-83
2021/07/15 03:51:44;;;;;;;5.07;0.70;;;;;;;18.06;84.49;100796.19;5041464;28;20461;-83
2021/07/15 03:54:09;;;;;;;1.58;0.70;;;;;;;18.14;83.41;100790.53;5058346;28;20027;-84
2021/07/15 03:56:36;;;;;;;0.70;0.60;;;;;;;18.24;83.11;100797.13;5058466;28;20020;-84
2021/07/15 03:59:02;;;;;;;1.15;0.70;;;;;;;18.20;84.23;100802.59;5058530;28;20021;-83
2021/07/15 04:01:30;;;;;;;1.15;0.88;;;;;;;18.29;84.08;100804.81;5041267;28;20334;-84
2021/07/15 04:03:56;;;;;;;0.80;0.80;;;;;;;18.45;83.99;100804.09;5041598;28;20039;-83
2021/07/15 04:06:22;;;;;;;0.95;0.73;;;;;;;18.49;83.43;100813.63;5041565;28;20325;-84
2021/07/15 04:08:48;;;;;;;1.55;1.17;;;;;;;18.44;84.36;100816.47;5058586;28;20036;-84
2021/07/15 04:11:16;;;;;;;1.98;0.60;;;;;;;18.52;83.53;100822.25;5074312;28;20062;-84
2021/07/15 04:13:43;;;;;;;1.73;0.60;;;;;;;18.46;83.92;100816.41;5057490;28;20426;-84
2021/07/15 04:16:47;;;;;;;1.45;0.77;;;;;;;18.53;83.51;100823.13;5042033;28;20024;-83
2021/07/15 04:19:13;;;;;;;0.40;0.40;;;;;;;18.65;81.58;100829.59;5058018;28;20118;-83
2021/07/15 04:21:39;;;;;;;1.08;0.40;;;;;;;18.69;80.70;100826.75;5057869;28;20054;-84
2021/07/15 04:24:05;;;;;;;1.40;0.60;;;;;;;18.64;82.30;100831.41;5041341;28;20346;-82
2021/07/15 04:26:30;;;;;;;0.90;0.70;;;;;;;18.75;81.41;100822.94;5041324;28;20021;-84
2021/07/15 04:28:56;;;;;;;0.68;0.60;;;;;;;18.44;83.43;100828.84;5058287;28;20059;-83
2021/07/15 04:31:47;;;;;;;1.30;0.60;;;;;;;18.66;82.24;100828.69;5057678;28;20036;-83
2021/07/15 04:34:13;;;;;;;0.60;0.50;;;;;;;18.68;81.66;100827.69;5045952;28;20070;-84
2021/07/15 04:36:40;;;;;;;0.50;0.50;;;;;;;18.52;82.01;100832.84;5044743;28;20032;-83
2021/07/15 04:39:05;;;;;;;0.50;0.50;;;;;;;18.63;82.80;100837.63;5058548;28;20375;-83
2021/07/15 04:41:31;;;;;;;3.65;0.70;;;;;;;18.82;81.54;100836.75;5041100;28;20024;-82
2021/07/15 04:43:57;;;;;;;2.60;0.70;;;;;;;18.93;79.93;100826.50;5041254;28;20026;-83
2021/07/15 04:46:23;;;;;;;1.65;0.80;;;;;;;18.59;81.13;100836.91;5058792;28;20078;-82
2021/07/15 04:48:49;;;;;;;0.82;0.57;;;;;;;18.81;81.47;100827.94;5042313;28;20426;-82
2021/07/15 04:51:16;;;;;;;1.00;0.50;;;;;;;19.11;79.42;100832.69;5041463;28;20028;-83
2021/07/15 04:53:43;;;;;;;0.50;0.50;;;;;;;19.23;79.29;100833.88;5058911;28;20353;-85
2021/07/15 04:56:08;;;;;;;1.33;0.90;;;;;;;19.14;78.89;100840.50;5042378;28;20047;-85
2021/07/15 04:58:35;;;;;;;1.02;0.50;;;;;;;18.94;79.59;100838.81;5046534;28;20369;-85
2021/07/15 05:01:00;;;;;;;0.65;0.55;;;;;;;19.12;79.50;100836.22;5066884;28;20082;-86
2021/07/15 05:03:33;;;;;;;0.68;0.65;;;;;;;18.83;80.41;100833.16;5060108;28;20024;-83
2021/07/15 05:06:04;;;;;;;1.55;0.45;;;;;;;18.77;81.02;100828.16;5045346;28;20031;-83
2021/07/15 05:08:30;;;;;;;0.90;0.52;;;;;;;18.75;80.23;100821.16;5059561;28;20028;-84
2021/07/15 05:10:57;;;;;;;2.15;0.70;;;;;;;18.95;79.86;100823.78;5041729;28;20093;-85
2021/07/15 05:13:22;;;;;;;8.70;1.45;;;;;;;18.77;81.45;100814.94;5041912;28;20024;-83
2021/07/15 05:15:48;;;;;;;2.30;0.73;;;;;;;19.03;79.43;100822.50;5044849;28;20031;-84
2021/07/15 05:18:14;;;;;;;1.45;0.47;;;;;;;19.09;79.43;100827.47;5062540;28;20054;-84
2021/07/15 05:20:39;;;;;;;2.55;0.70;;;;;;;19.33;78.92;100826.31;5045828;28;20032;-84
2021/07/15 05:23:04;;;;;;;13.73;2.05;;;;;;;19.50;77.93;100828.13;5045653;28;20047;-84
2021/07/15 05:25:30;;;;;;;5.38;0.70;;;;;;;19.53;78.07;100831.44;5061283;28;20063;-84
2021/07/15 05:27:55;;;;;;;0.70;0.50;;;;;;;19.49;78.91;100831.69;5059993;28;20055;-83
2021/07/15 05:30:20;;;;;;;1.42;0.63;;;;;;;19.62;77.04;100843.38;5060126;28;20099;-83
2021/07/15 05:32:46;;;;;;;0.65;0.52;;;;;;;19.55;77.54;100842.81;5059788;28;20378;-81
2021/07/15 05:35:11;;;;;;;1.67;0.50;;;;;;;19.82;76.14;100838.84;5042132;28;20024;-85
2021/07/15 05:37:38;;;;;;;3.08;1.20;;;;;;;20.13;74.92;100845.16;5042285;28;20031;-84
2021/07/15 05:40:04;;;;;;;3.10;0.85;;;;;;;20.24;75.00;100840.13;5058851;28;20028;-84
2021/07/15 05:42:29;;;;;;;6.15;0.60;;;;;;;20.33;73.94;100841.41;5041692;28;20024;-84
2021/07/15 05:44:55;;;;;;;1.10;0.90;;;;;;;19.85;75.11;100836.03;5058273;28;20029;-83
2021/07/15 05:47:20;;;;;;;1.20;0.60;;;;;;;19.84;75.87;100839.63;5059764;28;20456;-83
2021/07/15 05:49:46;;;;;;;0.75;0.65;;;;;;;20.12;74.84;100838.16;5057475;28;20020;-84
2021/07/15 05:52:12;;;;;;;0.77;0.77;;;;;;;19.49;76.50;100834.34;5040650;28;20112;-84
2021/07/15 05:54:38;;;;;;;2.60;0.82;;;;;;;19.58;76.41;100841.81;5057173;28;20111;-84
2021/07/15 05:57:05;;;;;;;2.28;1.02;;;;;;;19.90;75.11;100855.19;5038798;28;20024;-82
2021/07/15 05:59:30;;;;;;;1.13;0.90;;;;;;;19.99;74.34;100856.50;5054081;28;20019;-84
2021/07/15 06:01:55;;;;;;;0.77;0.77;;;;;;;19.85;75.36;100862.53;5038225;28;20021;-83
2021/07/15 06:04:21;;;;;;;3.72;1.10;;;;;;;19.62;76.00;100856.63;5040387;28;20037;-83
2021/07/15 06:06:46;;;;;;;3.70;1.00;;;;;;;19.87;76.00;100865.97;5056234;28;20040;-85
2021/07/15 06:09:11;;;;;;;1.63;0.57;;;;;;;20.07;75.82;100878.19;5039845;28;20023;-85
2021/07/15 06:11:37;;;;;;;2.70;0.93;;;;;;;19.89;75.71;100874.69;5054886;28;20070;-85
2021/07/15 06:14:02;;;;;;;2.92;1.20;;;;;;;19.81;76.27;100877.75;5056133;28;20421;-85
2021/07/15 06:16:28;;;;;;;1.27;1.00;;;;;;;20.24;74.16;100882.56;5039607;28;20322;-85
2021/07/15 06:18:53;;;;;;;0.85;0.85;;;;;;;20.31;74.39;100877.78;5040000;28;20040;-85
2021/07/15 06:21:18;;;;;;;3.70;0.70;;;;;;;20.52;74.45;100886.34;5072053;28;20108;-85
2021/07/15 06:23:44;;;;;;;3.97;1.00;;;;;;;20.60;74.57;100886.78;5039730;28;20044;-85
2021/07/15 06:26:10;;;;;;;2.50;1.42;;;;;;;20.99;71.65;100890.00;5062174;28;20032;-84
2021/07/15 06:28:36;;;;;;;0.80;0.80;;;;;;;21.40;70.83;100895.56;5059406;28;20032;-84
2021/07/15 06:31:01;;;;;;;1.48;0.98;;;;;;;22.07;69.05;100892.50;5066645;28;20024;-81
2021/07/15 06:33:26;;;;;;;2.58;1.00;;;;;;;23.17;64.12;100890.94;5063081;28;20317;-83
2021/07/15 06:35:52;;;;;;;1.25;0.88;;;;;;;21.19;70.84;100883.56;5037629;28;20032;-82
2021/07/15 06:38:18;;;;;;;1.98;0.98;;;;;;;22.93;64.67;100878.25;5060795;28;20036;-84
2021/07/15 06:40:45;;;;;;;0.80;0.80;;;;;;;23.89;61.01;100881.72;5068306;28;20027;-84
2021/07/15 06:43:11;;;;;;;2.15;0.80;;;;;;;23.22;62.76;100879.94;5052036;28;20424;-83
2021/07/15 06:45:36;;;;;;;0.80;0.50;;;;;;;23.26;62.57;100884.13;5054399;28;20025;-84
2021/07/15 06:48:01;;;;;;;0.75;0.70;;;;;;;23.73;61.75;100885.38;5064987;28;20028;-83
2021/07/15 06:50:27;;;;;;;0.70;0.65;;;;;;;23.62;61.71;100893.28;5091250;28;20020;-84
2021/07/15 06:52:52;;;;;;;1.00;0.65;;;;;;;22.84;63.82;100900.16;5086844;28;20033;-84
2021/07/15 06:55:17;;;;;;;1.05;0.85;;;;;;;21.19;70.59;100899.50;5083378;28;20062;-84
2021/07/15 06:57:44;;;;;;;1.10;0.70;;;;;;;21.01;72.26;100902.25;5081568;28;20324;-82
2021/07/15 07:00:13;;;;;;;0.88;0.80;;;;;;;21.00;72.96;100899.69;5080905;28;20032;-83
2021/07/15 07:02:43;;;;;;;1.23;1.10;;;;;;;21.16;71.73;100904.94;5060609;28;20089;-83
2021/07/15 07:05:09;;;;;;;2.00;1.10;;;;;;;20.63;73.20;100907.00;5072650;28;20013;-81
2021/07/15 07:07:35;;;;;;;3.17;1.48;;;;;;;21.70;68.17;100909.81;5063003;28;20058;-82
2021/07/15 07:10:01;;;;;;;1.38;1.30;;;;;;;21.83;69.19;100904.63;5068536;28;20009;-87
2021/07/15 07:12:26;;;;;;;1.00;0.85;;;;;;;21.01;72.26;100918.19;5066750;28;20029;-87
2021/07/15 07:14:52;;;;;;;1.95;1.33;;;;;;;20.50;73.39;100917.44;5039308;28;20098;-85
2021/07/15 07:17:17;;;;;;;3.83;1.75;;;;;;;20.73;73.03;100924.16;5049602;28;20366;-88
2021/07/15 07:19:42;;;;;;;2.85;1.83;;;;;;;20.66;72.35;100928.94;5060407;28;20024;-83
2021/07/15 07:22:08;;;;;;;1.63;1.52;;;;;;;21.23;71.11;100920.47;5060858;28;20078;-86
2021/07/15 07:24:33;;;;;;;1.85;1.50;;;;;;;21.88;67.97;100918.50;5059929;28;20024;-85
2021/07/15 07:26:58;;;;;;;2.08;1.67;;;;;;;22.14;67.47;100914.25;5055635;28;20031;-86
2021/07/15 07:29:24;;;;;;;2.83;1.45;;;;;;;22.60;65.44;100907.88;5059369;28;20035;-85
2021/07/15 07:31:49;;;;;;;1.58;1.48;;;;;;;22.75;64.42;100914.03;5061265;28;20044;-84
2021/07/15 07:34:14;;;;;;;1.70;1.58;;;;;;;22.27;65.58;100914.34;5061531;28;20024;-84
2021/07/15 07:36:40;;;;;;;2.50;1.85;;;;;;;21.76;67.57;100925.38;5042237;28;20034;-86
2021/07/15 07:39:05;;;;;;;2.88;1.65;;;;;;;21.36;68.77;100923.25;5060240;28;20486;-87
2021/07/15 07:41:32;;;;;;;2.03;1.92;;;;;;;20.83;70.70;100919.19;5077585;28;20115;-88
2021/07/15 07:43:57;;;;;;;2.20;2.10;;;;;;;20.79;69.37;100915.84;5055588;28;20028;-89
2021/07/15 07:46:23;;;;;;;3.25;2.15;;;;;;;20.99;69.32;100922.72;5053106;28;20028;-89
2021/07/15 07:48:49;;;;;;;1.88;1.55;;;;;;;21.74;67.44;100928.16;5040211;28;20043;-89
2021/07/15 07:51:14;;;;;;;4.18;1.60;;;;;;;21.56;68.04;100923.94;5074324;28;20055;-89
2021/07/15 07:53:40;;;;;;;2.85;1.67;;;;;;;21.59;67.93;100924.59;5041975;28;20017;-89
2021/07/15 07:56:05;;;;;;;2.00;1.90;;;;;;;21.52;67.29;100922.38;5058469;28;20032;-88
2021/07/15 07:58:31;;;;;;;2.28;2.17;;;;;;;21.61;66.72;100919.22;5042007;28;20031;-89
2021/07/15 08:00:56;;;;;;;1.85;1.75;;;;;;;21.34;70.35;100925.16;5059179;28;20176;-89
2021/07/15 08:03:21;;;;;;;1.88;1.77;;;;;;;21.43;70.13;100929.94;5041931;28;20024;-88
2021/07/15 08:05:47;;;;;;;2.10;2.00;;;;;;;21.59;69.09;100923.75;5056838;28;20025;-82
2021/07/15 08:08:18;;;;;;;3.30;2.13;;;;;;;21.41;69.44;100931.81;5061648;28;20055;-75
2021/07/15 08:10:43;;;;;;;2.05;1.85;;;;;;;21.58;67.14;100930.88;5062593;28;20029;-74
2021/07/15 08:13:09;;;;;;;2.67;2.40;;;;;;;21.74;67.94;100944.09;5045887;28;20666;-75
2021/07/15 08:15:35;;;;;;;2.40;2.28;;;;;;;21.83;67.80;100941.84;5048418;28;20028;-75
2021/07/15 08:18:01;;;;;;;2.65;2.45;;;;;;;21.96;66.76;100948.13;5049804;28;20035;-76
2021/07/15 08:20:26;;;;;;;2.33;2.05;;;;;;;21.65;67.88;100944.66;5058263;28;20075;-76
2021/07/15 08:22:51;;;;;;;2.40;2.30;;;;;;;21.41;68.41;100950.41;5066305;28;20047;-75
2021/07/15 08:25:19;;;;;;;2.20;2.10;;;;;;;21.45;68.09;100959.91;5052884;28;20135;-76
2021/07/15 08:27:46;;;;;;;2.55;2.28;;;;;;;21.35;67.44;100958.75;5072267;28;20035;-76
2021/07/15 08:30:12;;;;;;;2.60;2.42;;;;;;;21.82;66.39;100964.91;5055689;28;20020;-74
2021/07/15 08:32:38;;;;;;;2.15;2.00;;;;;;;21.62;66.01;100966.09;5056655;28;20474;-74
2021/07/15 08:35:04;;;;;;;2.22;2.03;;;;;;;21.97;64.40;100965.81;5057112;28;20111;-76
2021/07/15 08:37:29;;;;;;;1.95;1.85;;;;;;;22.25;63.36;100965.00;5074682;28;20376;-75
2021/07/15 08:39:54;;;;;;;2.20;2.10;;;;;;;22.47;63.95;100970.81;5074288;28;20024;-74
2021/07/15 08:42:20;;;;;;;1.60;1.50;;;;;;;22.63;63.34;100966.25;5056375;28;20058;-74
2021/07/15 08:44:47;;;;;;;2.35;1.88;;;;;;;22.86;61.15;100963.94;5040198;28;20021;-75
2021/07/15 08:47:14;;;;;;;1.60;1.50;;;;;;;22.92;61.67;100961.75;5055954;28;20600;-75
2021/07/15 08:49:39;;;;;;;1.88;1.77;;;;;;;22.76;61.94;100964.53;5056063;28;20024;-75
2021/07/15 08:52:05;;;;;;;1.73;1.63;;;;;;;22.99;61.88;100951.56;5039467;28;20028;-75
2021/07/15 08:54:47;;;;;;;3.40;1.75;;;;;;;22.71;61.20;100945.31;5054065;28;20078;-75
2021/07/15 08:57:13;;;;;;;1.42;1.33;;;;;;;22.53;62.38;100946.50;5054167;28;20028;-75
2021/07/15 08:59:38;;;;;;;2.13;1.92;;;;;;;22.28;62.20;100948.84;5056262;28;20024;-75
2021/07/15 09:02:04;;;;;;;1.90;1.80;;;;;;;22.18;63.31;100946.84;5072295;28;20032;-75
2021/07/15 09:04:29;;;;;;;1.58;1.48;;;;;;;21.94;64.00;100947.38;5061250;28;20056;-76
2021/07/15 09:06:56;;;;;;;2.22;2.08;;;;;;;21.93;64.53;100958.97;5073427;28;20032;-76
2021/07/15 09:09:22;;;;;;;2.20;1.98;;;;;;;22.03;65.11;100959.25;5056026;28;20021;-75
2021/07/15 09:11:47;;;;;;;2.10;2.00;;;;;;;21.66;65.91;100962.31;5056333;28;20062;-77
2021/07/15 09:14:22;;;;;;;1.92;1.83;;;;;;;22.00;63.99;100957.63;5057815;28;20119;-80
2021/07/15 09:16:49;;;;;;;1.83;1.58;;;;;;;22.55;63.52;100957.91;5058189;28;20030;-81
2021/07/15 09:19:16;;;;;;;2.92;1.67;;;;;;;22.61;61.92;100954.84;5040642;28;20025;-79
2021/07/15 09:21:41;;;;;;;1.70;1.60;;;;;;;22.84;62.70;100949.88;5051577;28;20028;-78
2021/07/15 09:24:32;;;;;;;4.70;1.40;;;;;;;22.53;60.92;100957.16;5057650;28;20026;-78
2021/07/15 09:26:59;;;;;;;1.23;1.23;;;;;;;22.87;59.14;100941.69;5045841;28;20025;-77
2021/07/15 09:29:24;;;;;;;5.63;1.65;;;;;;;22.71;60.65;100942.66;5039603;28;20021;-78
2021/07/15 09:31:55;;;;;;;2.10;1.70;;;;;;;22.94;60.62;100948.34;5041183;28;20061;-78
2021/07/15 09:34:25;;;;;;;1.40;1.30;;;;;;;23.18;59.38;100947.72;5078673;28;20027;-78
2021/07/15 09:36:53;;;;;;;1.60;1.50;;;;;;;23.38;59.53;100946.41;5043303;28;20330;-78
2021/07/15 09:39:19;;;;;;;1.80;1.70;;;;;;;23.40;58.50;100949.84;5059039;28;20028;-78
2021/07/15 09:42:04;;;;;;;1.88;1.77;;;;;;;23.53;58.70;100957.88;5055148;28;20051;-78
2021/07/15 09:44:30;;;;;;;1.58;1.48;;;;;;;23.99;59.23;100954.78;5069583;28;20149;-78
2021/07/15 09:46:56;;;;;;;1.38;1.27;;;;;;;24.14;58.18;100945.72;5041782;28;20129;-78
2021/07/15 09:49:32;;;;;;;1.70;1.08;;;;;;;24.64;55.68;100950.31;5058219;28;20036;-78
2021/07/15 09:51:59;;;;;;;1.50;1.40;;;;;;;24.87;54.79;100942.44;5057252;28;20016;-78
2021/07/15 09:54:25;;;;;;;23.13;7.03;;;;;;;24.94;57.14;100949.06;5057508;28;20029;-78
2021/07/15 09:56:50;;;;;;;5.97;2.35;;;;;;;24.92;56.84;100949.16;5058000;28;20020;-78
2021/07/15 09:59:15;;;;;;;2.33;2.03;;;;;;;24.79;56.77;100959.03;5058398;28;20056;-79
2021/07/15 10:01:49;;;;;;;3.47;2.28;;;;;;;24.14;55.00;100959.03;5041068;28;20092;-78
2021/07/15 10:04:26;;;;;;;5.20;2.58;;;;;;;24.25;56.00;100965.47;5075833;28;20051;-79
2021/07/15 10:06:54;;;;;;;5.88;3.97;;;;;;;24.52;56.79;100962.66;5043357;28;20090;-78
2021/07/15 10:09:25;;;;;;;7.38;5.00;;;;;;;24.01;57.93;100978.69;5041540;28;20032;-78
2021/07/15 10:11:56;;;;;;;3.83;2.40;;;;;;;23.61;58.57;100976.88;5044660;28;20029;-78
2021/07/15 10:14:39;;;;;;;2.00;1.77;;;;;;;23.24;60.29;100973.97;5045954;28;20028;-78
2021/07/15 10:17:05;;;;;;;2.17;1.90;;;;;;;23.52;58.44;100966.81;5078875;28;20044;-78
2021/07/15 10:19:30;;;;;;;4.40;2.63;;;;;;;23.41;58.42;100971.06;5061647;28;20016;-78
2021/07/15 10:21:59;;;;;;;1.90;1.80;;;;;;;23.26;59.40;100962.25;5061584;28;20021;-78
2021/07/15 10:24:25;;;;;;;2.33;1.55;;;;;;;23.73;59.36;100965.38;5062023;28;20028;-79
2021/07/15 10:26:54;;;;;;;3.30;2.33;;;;;;;23.84;57.85;100961.16;5045566;28;20036;-78
2021/07/15 10:29:19;;;;;;;4.13;2.65;;;;;;;23.83;59.90;100967.44;5061602;28;20418;-78
2021/07/15 10:31:47;;;;;;;1.85;1.75;;;;;;;23.85;57.93;100962.84;5045262;28;20411;-78
2021/07/15 10:34:13;;;;;;;1.90;1.80;;;;;;;24.27;56.58;100961.72;5061659;28;20108;-78
2021/07/15 10:36:39;;;;;;;2.03;1.85;;;;;;;24.73;54.42;100955.00;5061704;28;20584;-78
2021/07/15 10:39:11;;;;;;;2.08;1.90;;;;;;;24.88;54.09;100953.03;5061163;28;20090;-78
2021/07/15 10:41:37;;;;;;;2.28;2.03;;;;;;;24.50;54.67;100953.06;5044165;28;20311;-78
2021/07/15 10:44:04;;;;;;;3.40;2.85;;;;;;;24.69;55.79;100950.84;5044201;28;20082;-78
2021/07/15 10:46:30;;;;;;;3.33;2.42;;;;;;;25.23;55.14;100946.88;5061248;28;20119;-78
2021/07/15 10:48:55;;;;;;;2.13;1.70;;;;;;;25.16;53.40;100942.13;5040789;28;20311;-78
2021/07/15 10:51:21;;;;;;;8.77;4.13;;;;;;;25.24;55.81;100942.41;5045451;28;20021;-79
2021/07/15 10:53:47;;;;;;;5.35;3.60;;;;;;;25.35;54.72;100939.81;5040941;28;20059;-78
2021/07/15 10:56:16;;;;;;;4.47;2.80;;;;;;;24.88;52.84;100941.47;5057633;28;20021;-78
2021/07/15 10:58:53;;;;;;;2.70;2.50;;;;;;;24.76;52.62;100949.41;5025590;28;20021;-78
2021/07/15 11:01:30;;;;;;;2.38;2.28;;;;;;;25.23;52.79;100941.53;5026302;28;20513;-79
2021/07/15 11:04:06;;;;;;;2.28;2.17;;;;;;;25.73;51.27;100941.41;5077962;28;20032;-78
2021/07/15 11:06:40;;;;;;;7.63;3.60;;;;;;;25.54;53.06;100955.31;5042482;28;20330;-78
2021/07/15 11:09:10;;;;;;;4.93;2.45;;;;;;;26.19;54.64;100957.56;5034380;28;20086;-77
2021/07/15 11:11:38;;;;;;;2.67;2.47;;;;;;;25.98;50.68;100953.72;5058444;28;20032;-78
2021/07/15 11:14:04;;;;;;;2.85;2.30;;;;;;;25.69;51.55;100955.97;5078506;28;20059;-78
2021/07/15 11:16:49;;;;;;;2.50;2.40;;;;;;;25.72;50.43;100958.41;5059244;28;20414;-76
2021/07/15 11:19:53;;;;;;;4.78;2.92;;;;;;;25.02;53.98;100972.50;5057860;28;20047;-74
2021/07/15 11:22:34;;;;;;;2.25;2.15;;;;;;;24.91;53.16;100983.97;5064374;28;20098;-74
2021/07/15 11:25:04;;;;;;;2.67;2.58;;;;;;;24.50;53.47;100974.41;5072480;28;20032;-74
2021/07/15 11:27:48;;;;;;;3.22;2.83;;;;;;;24.86;52.84;100980.81;5063580;28;20027;-75